sensor_id;sensor_type;location;lat;lon;timestamp;temperature;humidity
52381;DHT22;38310;52.796;6.942;2023-05-07T00:00:18;13.50;99.90
52381;DHT22;38310;52.796;6.942;2023-05-07T00:02:45;13.50;99.90
52381;DHT22;38310;52.796;6.942;2023-05-07T00:05:11;13.40;99.90
52381;DHT22;38310;52.796;6.942;2023-05-07T00:07:37;13.40;99.90
52381;DHT22;38310;52.796;6.942;2023-05-07T00:10:03;13.40;99.90
52381;DHT22;38310;52.796;6.942;2023-05-07T00:12:29;13.30;99.90
52381;DHT22;38310;52.796;6.942;2023-05-07T00:15:05;13.30;99.90
52381;DHT22;38310;52.796;6.942;2023-05-07T00:17:32;13.30;99.90
52381;DHT22;38310;52.796;6.942;2023-05-07T00:19:58;13.20;99.90
52381;DHT22;38310;52.796;6.942;2023-05-07T00:22:23;13.20;99.90
52381;DHT22;38310;52.796;6.942;2023-05-07T00:24:49;13.20;99.90
52381;DHT22;38310;52.796;6.942;2023-05-07T00:27:15;13.10;99.90
52381;DHT22;38310;52.796;6.942;2023-05-07T00:29:41;13.10;99.90
52381;DHT22;38310;52.796;6.942;2023-05-07T00:32:06;13.00;99.90
52381;DHT22;38310;52.796;6.942;2023-05-07T00:34:33;13.00;99.90
52381;DHT22;38310;52.796;6.942;2023-05-07T00:36:59;12.90;99.90
52381;DHT22;38310;52.796;6.942;2023-05-07T00:39:24;12.90;99.90
52381;DHT22;38310;52.796;6.942;2023-05-07T00:41:50;12.80;99.90
52381;DHT22;38310;52.796;6.942;2023-05-07T00:44:16;12.70;99.90
52381;DHT22;38310;52.796;6.942;2023-05-07T00:46:43;12.70;99.90
52381;DHT22;38310;52.796;6.942;2023-05-07T00:49:10;12.70;99.90
52381;DHT22;38310;52.796;6.942;2023-05-07T00:51:37;12.60;99.90
52381;DHT22;38310;52.796;6.942;2023-05-07T00:54:03;12.60;99.90
52381;DHT22;38310;52.796;6.942;2023-05-07T00:56:29;12.60;99.90
52381;DHT22;38310;52.796;6.942;2023-05-07T00:58:54;12.50;99.90
52381;DHT22;38310;52.796;6.942;2023-05-07T01:01:20;12.40;99.90
52381;DHT22;38310;52.796;6.942;2023-05-07T01:03:46;12.40;99.90
52381;DHT22;38310;52.796;6.942;2023-05-07T01:06:13;12.40;99.90
52381;DHT22;38310;52.796;6.942;2023-05-07T01:08:42;12.30;99.90
52381;DHT22;38310;52.796;6.942;2023-05-07T01:11:08;12.30;99.90
52381;DHT22;38310;52.796;6.942;2023-05-07T01:13:37;12.30;99.90
52381;DHT22;38310;52.796;6.942;2023-05-07T01:16:04;12.20;99.90
52381;DHT22;38310;52.796;6.942;2023-05-07T01:18:30;12.20;99.90
52381;DHT22;38310;52.796;6.942;2023-05-07T01:20:58;12.20;99.90
52381;DHT22;38310;52.796;6.942;2023-05-07T01:23:25;12.10;99.90
52381;DHT22;38310;52.796;6.942;2023-05-07T01:25:52;12.10;99.90
52381;DHT22;38310;52.796;6.942;2023-05-07T01:28:18;12.10;99.90
52381;DHT22;38310;52.796;6.942;2023-05-07T01:30:48;12.10;99.90
52381;DHT22;38310;52.796;6.942;2023-05-07T01:33:19;12.00;99.90
52381;DHT22;38310;52.796;6.942;2023-05-07T01:35:50;11.90;99.90
52381;DHT22;38310;52.796;6.942;2023-05-07T01:38:17;11.90;99.90
52381;DHT22;38310;52.796;6.942;2023-05-07T01:40:43;11.80;99.90
52381;DHT22;38310;52.796;6.942;2023-05-07T01:43:09;11.80;99.90
52381;DHT22;38310;52.796;6.942;2023-05-07T01:45:36;11.70;99.90
52381;DHT22;38310;52.796;6.942;2023-05-07T01:48:07;11.70;99.90
52381;DHT22;38310;52.796;6.942;2023-05-07T01:50:34;11.70;99.90
52381;DHT22;38310;52.796;6.942;2023-05-07T01:53:01;11.80;99.90
52381;DHT22;38310;52.796;6.942;2023-05-07T01:55:27;11.70;99.90
52381;DHT22;38310;52.796;6.942;2023-05-07T01:57:53;11.70;99.90
52381;DHT22;38310;52.796;6.942;2023-05-07T02:00:19;11.70;99.90
52381;DHT22;38310;52.796;6.942;2023-05-07T02:02:45;11.60;99.90
52381;DHT22;38310;52.796;6.942;2023-05-07T02:05:11;11.70;99.90
52381;DHT22;38310;52.796;6.942;2023-05-07T02:07:36;11.70;99.90
52381;DHT22;38310;52.796;6.942;2023-05-07T02:10:02;11.70;99.90
52381;DHT22;38310;52.796;6.942;2023-05-07T02:12:28;11.70;99.90
52381;DHT22;38310;52.796;6.942;2023-05-07T02:14:54;11.60;99.90
52381;DHT22;38310;52.796;6.942;2023-05-07T02:17:19;11.60;99.90
52381;DHT22;38310;52.796;6.942;2023-05-07T02:19:45;11.50;99.90
52381;DHT22;38310;52.796;6.942;2023-05-07T02:22:11;11.50;99.90
52381;DHT22;38310;52.796;6.942;2023-05-07T02:24:36;11.50;99.90
52381;DHT22;38310;52.796;6.942;2023-05-07T02:27:02;11.50;99.90
52381;DHT22;38310;52.796;6.942;2023-05-07T02:29:29;11.40;99.90
52381;DHT22;38310;52.796;6.942;2023-05-07T02:31:54;11.40;99.90
52381;DHT22;38310;52.796;6.942;2023-05-07T02:34:21;11.40;99.90
52381;DHT22;38310;52.796;6.942;2023-05-07T02:36:46;11.40;99.90
52381;DHT22;38310;52.796;6.942;2023-05-07T02:39:13;11.40;99.90
52381;DHT22;38310;52.796;6.942;2023-05-07T02:41:39;11.30;99.90
52381;DHT22;38310;52.796;6.942;2023-05-07T02:44:05;11.30;99.90
52381;DHT22;38310;52.796;6.942;2023-05-07T02:46:30;11.30;99.90
52381;DHT22;38310;52.796;6.942;2023-05-07T02:48:56;11.30;99.90
52381;DHT22;38310;52.796;6.942;2023-05-07T02:51:22;11.30;99.90
52381;DHT22;38310;52.796;6.942;2023-05-07T02:53:48;11.20;99.90
52381;DHT22;38310;52.796;6.942;2023-05-07T02:56:14;11.30;99.90
52381;DHT22;38310;52.796;6.942;2023-05-07T02:58:40;11.30;99.90
52381;DHT22;38310;52.796;6.942;2023-05-07T03:01:08;11.20;99.90
52381;DHT22;38310;52.796;6.942;2023-05-07T03:03:34;11.20;99.90
52381;DHT22;38310;52.796;6.942;2023-05-07T03:06:00;11.20;99.90
52381;DHT22;38310;52.796;6.942;2023-05-07T03:08:26;11.20;99.90
52381;DHT22;38310;52.796;6.942;2023-05-07T03:10:52;11.20;99.90
52381;DHT22;38310;52.796;6.942;2023-05-07T03:13:18;11.20;99.90
52381;DHT22;38310;52.796;6.942;2023-05-07T03:15:43;11.20;99.90
52381;DHT22;38310;52.796;6.942;2023-05-07T03:18:09;11.20;99.90
52381;DHT22;38310;52.796;6.942;2023-05-07T03:20:35;11.20;99.90
52381;DHT22;38310;52.796;6.942;2023-05-07T03:23:02;11.20;99.90
52381;DHT22;38310;52.796;6.942;2023-05-07T03:25:28;11.20;99.90
52381;DHT22;38310;52.796;6.942;2023-05-07T03:27:55;11.10;99.90
52381;DHT22;38310;52.796;6.942;2023-05-07T03:30:21;11.10;99.90
52381;DHT22;38310;52.796;6.942;2023-05-07T03:32:47;11.10;99.90
52381;DHT22;38310;52.796;6.942;2023-05-07T03:35:13;11.10;99.90
52381;DHT22;38310;52.796;6.942;2023-05-07T03:37:39;11.10;99.90
52381;DHT22;38310;52.796;6.942;2023-05-07T03:40:05;11.10;99.90
52381;DHT22;38310;52.796;6.942;2023-05-07T03:42:31;11.10;99.90
52381;DHT22;38310;52.796;6.942;2023-05-07T03:44:57;11.00;99.90
52381;DHT22;38310;52.796;6.942;2023-05-07T03:47:23;11.10;99.90
52381;DHT22;38310;52.796;6.942;2023-05-07T03:49:48;11.10;99.90
52381;DHT22;38310;52.796;6.942;2023-05-07T03:52:15;11.10;99.90
52381;DHT22;38310;52.796;6.942;2023-05-07T03:54:41;11.00;99.90
52381;DHT22;38310;52.796;6.942;2023-05-07T03:57:07;11.00;99.90
52381;DHT22;38310;52.796;6.942;2023-05-07T03:59:33;11.10;99.90
52381;DHT22;38310;52.796;6.942;2023-05-07T04:01:58;11.10;99.90
52381;DHT22;38310;52.796;6.942;2023-05-07T04:04:24;11.10;99.90
52381;DHT22;38310;52.796;6.942;2023-05-07T04:06:50;11.00;99.90
52381;DHT22;38310;52.796;6.942;2023-05-07T04:09:15;11.00;99.90
52381;DHT22;38310;52.796;6.942;2023-05-07T04:11:41;11.00;99.90
52381;DHT22;38310;52.796;6.942;2023-05-07T04:14:07;11.00;99.90
52381;DHT22;38310;52.796;6.942;2023-05-07T04:16:34;11.00;99.90
52381;DHT22;38310;52.796;6.942;2023-05-07T04:19:00;11.00;99.90
52381;DHT22;38310;52.796;6.942;2023-05-07T04:21:26;11.00;99.90
52381;DHT22;38310;52.796;6.942;2023-05-07T04:23:52;10.90;99.90
52381;DHT22;38310;52.796;6.942;2023-05-07T04:26:18;10.90;99.90
52381;DHT22;38310;52.796;6.942;2023-05-07T04:28:43;11.00;99.90
52381;DHT22;38310;52.796;6.942;2023-05-07T04:31:09;11.00;99.90
52381;DHT22;38310;52.796;6.942;2023-05-07T04:33:35;10.90;99.90
52381;DHT22;38310;52.796;6.942;2023-05-07T04:36:04;10.90;99.90
52381;DHT22;38310;52.796;6.942;2023-05-07T04:38:31;10.90;99.90
52381;DHT22;38310;52.796;6.942;2023-05-07T04:40:58;10.90;99.90
52381;DHT22;38310;52.796;6.942;2023-05-07T04:43:24;10.90;99.90
52381;DHT22;38310;52.796;6.942;2023-05-07T04:45:51;10.90;99.90
52381;DHT22;38310;52.796;6.942;2023-05-07T04:48:17;10.90;99.90
52381;DHT22;38310;52.796;6.942;2023-05-07T04:50:47;12.00;99.90
52381;DHT22;38310;52.796;6.942;2023-05-07T04:53:12;10.90;99.90
52381;DHT22;38310;52.796;6.942;2023-05-07T04:55:38;10.90;99.90
52381;DHT22;38310;52.796;6.942;2023-05-07T04:58:04;10.90;99.90
52381;DHT22;38310;52.796;6.942;2023-05-07T05:00:30;10.90;99.90
52381;DHT22;38310;52.796;6.942;2023-05-07T05:02:56;10.90;99.90
52381;DHT22;38310;52.796;6.942;2023-05-07T05:05:21;10.90;99.90
52381;DHT22;38310;52.796;6.942;2023-05-07T05:07:47;10.90;99.90
52381;DHT22;38310;52.796;6.942;2023-05-07T05:10:13;11.00;99.90
52381;DHT22;38310;52.796;6.942;2023-05-07T05:12:39;11.00;99.90
52381;DHT22;38310;52.796;6.942;2023-05-07T05:15:05;11.10;99.90
52381;DHT22;38310;52.796;6.942;2023-05-07T05:17:31;11.00;99.90
52381;DHT22;38310;52.796;6.942;2023-05-07T05:19:57;11.10;99.90
52381;DHT22;38310;52.796;6.942;2023-05-07T05:22:22;11.10;99.90
52381;DHT22;38310;52.796;6.942;2023-05-07T05:24:48;11.10;99.90
52381;DHT22;38310;52.796;6.942;2023-05-07T05:27:14;11.20;99.90
52381;DHT22;38310;52.796;6.942;2023-05-07T05:29:39;11.20;99.90
52381;DHT22;38310;52.796;6.942;2023-05-07T05:32:05;11.20;99.90
52381;DHT22;38310;52.796;6.942;2023-05-07T05:34:31;11.20;99.90
52381;DHT22;38310;52.796;6.942;2023-05-07T05:36:59;11.30;99.90
52381;DHT22;38310;52.796;6.942;2023-05-07T05:39:24;11.30;99.90
52381;DHT22;38310;52.796;6.942;2023-05-07T05:41:50;11.30;99.90
52381;DHT22;38310;52.796;6.942;2023-05-07T05:44:16;11.30;99.90
52381;DHT22;38310;52.796;6.942;2023-05-07T05:46:42;11.40;99.90
52381;DHT22;38310;52.796;6.942;2023-05-07T05:49:07;11.40;99.90
52381;DHT22;38310;52.796;6.942;2023-05-07T05:51:33;11.50;99.90
52381;DHT22;38310;52.796;6.942;2023-05-07T05:53:59;11.50;99.90
52381;DHT22;38310;52.796;6.942;2023-05-07T05:56:25;11.50;99.90
52381;DHT22;38310;52.796;6.942;2023-05-07T05:58:51;11.60;99.90
52381;DHT22;38310;52.796;6.942;2023-05-07T06:01:18;11.60;99.90
52381;DHT22;38310;52.796;6.942;2023-05-07T06:03:44;11.60;99.90
52381;DHT22;38310;52.796;6.942;2023-05-07T06:06:10;11.70;99.90
52381;DHT22;38310;52.796;6.942;2023-05-07T06:08:35;11.80;99.90
52381;DHT22;38310;52.796;6.942;2023-05-07T06:11:02;11.80;99.90
52381;DHT22;38310;52.796;6.942;2023-05-07T06:13:28;11.80;99.90
52381;DHT22;38310;52.796;6.942;2023-05-07T06:15:54;11.90;99.90
52381;DHT22;38310;52.796;6.942;2023-05-07T06:18:19;11.90;99.90
52381;DHT22;38310;52.796;6.942;2023-05-07T06:20:45;11.90;99.90
52381;DHT22;38310;52.796;6.942;2023-05-07T06:23:11;11.90;99.90
52381;DHT22;38310;52.796;6.942;2023-05-07T06:25:36;12.00;99.90
52381;DHT22;38310;52.796;6.942;2023-05-07T06:28:02;11.90;99.90
52381;DHT22;38310;52.796;6.942;2023-05-07T06:30:28;11.90;99.90
52381;DHT22;38310;52.796;6.942;2023-05-07T06:32:53;11.90;99.90
52381;DHT22;38310;52.796;6.942;2023-05-07T06:35:19;11.90;99.90
52381;DHT22;38310;52.796;6.942;2023-05-07T06:37:45;11.90;99.90
52381;DHT22;38310;52.796;6.942;2023-05-07T06:40:11;11.90;99.90
52381;DHT22;38310;52.796;6.942;2023-05-07T06:42:37;12.00;99.90
52381;DHT22;38310;52.796;6.942;2023-05-07T06:45:03;12.00;99.90
52381;DHT22;38310;52.796;6.942;2023-05-07T06:47:29;12.00;99.90
52381;DHT22;38310;52.796;6.942;2023-05-07T06:49:55;12.00;99.90
52381;DHT22;38310;52.796;6.942;2023-05-07T06:52:21;12.00;99.90
52381;DHT22;38310;52.796;6.942;2023-05-07T06:54:47;12.10;99.90
52381;DHT22;38310;52.796;6.942;2023-05-07T06:57:12;12.00;99.90
52381;DHT22;38310;52.796;6.942;2023-05-07T06:59:38;12.10;99.90
52381;DHT22;38310;52.796;6.942;2023-05-07T07:02:04;12.10;99.90
52381;DHT22;38310;52.796;6.942;2023-05-07T07:04:29;12.20;99.90
52381;DHT22;38310;52.796;6.942;2023-05-07T07:06:55;12.20;99.90
52381;DHT22;38310;52.796;6.942;2023-05-07T07:09:22;12.20;99.90
52381;DHT22;38310;52.796;6.942;2023-05-07T07:11:47;12.20;99.90
52381;DHT22;38310;52.796;6.942;2023-05-07T07:14:13;12.30;99.90
52381;DHT22;38310;52.796;6.942;2023-05-07T07:16:39;12.30;99.90
52381;DHT22;38310;52.796;6.942;2023-05-07T07:19:06;12.30;99.90
52381;DHT22;38310;52.796;6.942;2023-05-07T07:21:31;12.20;99.90
52381;DHT22;38310;52.796;6.942;2023-05-07T07:23:57;12.30;99.90
52381;DHT22;38310;52.796;6.942;2023-05-07T07:26:23;12.20;99.90
52381;DHT22;38310;52.796;6.942;2023-05-07T07:28:49;12.20;99.90
52381;DHT22;38310;52.796;6.942;2023-05-07T07:31:14;12.20;99.90
52381;DHT22;38310;52.796;6.942;2023-05-07T07:33:40;12.20;99.90
52381;DHT22;38310;52.796;6.942;2023-05-07T07:36:06;12.30;99.90
52381;DHT22;38310;52.796;6.942;2023-05-07T07:38:33;12.40;99.90
52381;DHT22;38310;52.796;6.942;2023-05-07T07:41:00;12.50;99.90
52381;DHT22;38310;52.796;6.942;2023-05-07T07:43:25;12.50;99.90
52381;DHT22;38310;52.796;6.942;2023-05-07T07:45:51;12.60;99.90
52381;DHT22;38310;52.796;6.942;2023-05-07T07:48:17;12.70;99.90
52381;DHT22;38310;52.796;6.942;2023-05-07T07:50:43;12.80;99.90
52381;DHT22;38310;52.796;6.942;2023-05-07T07:53:08;12.90;99.90
52381;DHT22;38310;52.796;6.942;2023-05-07T07:55:39;13.10;99.90
52381;DHT22;38310;52.796;6.942;2023-05-07T07:58:05;13.20;99.90
52381;DHT22;38310;52.796;6.942;2023-05-07T08:00:31;13.30;99.90
52381;DHT22;38310;52.796;6.942;2023-05-07T08:02:56;13.30;99.90
52381;DHT22;38310;52.796;6.942;2023-05-07T08:05:23;13.30;99.90
52381;DHT22;38310;52.796;6.942;2023-05-07T08:07:48;13.30;99.90
52381;DHT22;38310;52.796;6.942;2023-05-07T08:10:18;13.30;99.90
52381;DHT22;38310;52.796;6.942;2023-05-07T08:12:48;13.30;99.90
52381;DHT22;38310;52.796;6.942;2023-05-07T08:15:14;13.40;99.90
52381;DHT22;38310;52.796;6.942;2023-05-07T08:17:40;13.40;99.90
52381;DHT22;38310;52.796;6.942;2023-05-07T08:20:07;13.30;99.90
52381;DHT22;38310;52.796;6.942;2023-05-07T08:22:36;13.00;99.90
52381;DHT22;38310;52.796;6.942;2023-05-07T08:25:02;13.40;99.90
52381;DHT22;38310;52.796;6.942;2023-05-07T08:27:28;13.40;99.90
52381;DHT22;38310;52.796;6.942;2023-05-07T08:29:54;13.40;99.90
52381;DHT22;38310;52.796;6.942;2023-05-07T08:32:20;13.50;99.90
52381;DHT22;38310;52.796;6.942;2023-05-07T08:34:47;13.50;99.90
52381;DHT22;38310;52.796;6.942;2023-05-07T08:37:13;13.60;99.90
52381;DHT22;38310;52.796;6.942;2023-05-07T08:39:39;13.70;99.90
52381;DHT22;38310;52.796;6.942;2023-05-07T08:42:05;13.70;99.90
52381;DHT22;38310;52.796;6.942;2023-05-07T08:44:35;13.90;99.90
52381;DHT22;38310;52.796;6.942;2023-05-07T08:47:01;13.90;99.90
52381;DHT22;38310;52.796;6.942;2023-05-07T08:49:28;13.80;99.90
52381;DHT22;38310;52.796;6.942;2023-05-07T08:51:54;13.90;99.90
52381;DHT22;38310;52.796;6.942;2023-05-07T08:54:21;14.00;99.90
52381;DHT22;38310;52.796;6.942;2023-05-07T08:56:47;14.20;99.90
52381;DHT22;38310;52.796;6.942;2023-05-07T08:59:13;14.40;99.90
52381;DHT22;38310;52.796;6.942;2023-05-07T09:01:39;14.50;99.90
52381;DHT22;38310;52.796;6.942;2023-05-07T09:04:05;14.60;99.90
52381;DHT22;38310;52.796;6.942;2023-05-07T09:06:33;14.60;99.90
52381;DHT22;38310;52.796;6.942;2023-05-07T09:08:58;14.90;99.90
52381;DHT22;38310;52.796;6.942;2023-05-07T09:11:26;15.20;99.90
52381;DHT22;38310;52.796;6.942;2023-05-07T09:13:56;15.20;99.90
52381;DHT22;38310;52.796;6.942;2023-05-07T09:16:29;15.30;99.90
52381;DHT22;38310;52.796;6.942;2023-05-07T09:18:58;15.30;99.90
52381;DHT22;38310;52.796;6.942;2023-05-07T09:21:25;15.30;99.90
52381;DHT22;38310;52.796;6.942;2023-05-07T09:23:55;15.30;99.90
52381;DHT22;38310;52.796;6.942;2023-05-07T09:26:22;15.30;99.90
52381;DHT22;38310;52.796;6.942;2023-05-07T09:28:48;15.40;99.90
52381;DHT22;38310;52.796;6.942;2023-05-07T09:31:14;15.50;99.90
52381;DHT22;38310;52.796;6.942;2023-05-07T09:33:40;15.70;99.90
52381;DHT22;38310;52.796;6.942;2023-05-07T09:36:07;15.90;99.90
52381;DHT22;38310;52.796;6.942;2023-05-07T09:38:34;16.00;99.90
52381;DHT22;38310;52.796;6.942;2023-05-07T09:43:34;16.30;99.90
52381;DHT22;38310;52.796;6.942;2023-05-07T09:46:23;16.20;99.90
52381;DHT22;38310;52.796;6.942;2023-05-07T09:48:53;16.40;99.90
52381;DHT22;38310;52.796;6.942;2023-05-07T09:51:53;16.50;99.90
52381;DHT22;38310;52.796;6.942;2023-05-07T09:54:19;16.60;99.90
52381;DHT22;38310;52.796;6.942;2023-05-07T09:56:45;16.60;99.90
52381;DHT22;38310;52.796;6.942;2023-05-07T09:59:15;16.70;99.90
52381;DHT22;38310;52.796;6.942;2023-05-07T10:01:42;16.80;99.90
52381;DHT22;38310;52.796;6.942;2023-05-07T10:04:09;16.80;99.90
52381;DHT22;38310;52.796;6.942;2023-05-07T10:06:35;17.20;99.90
52381;DHT22;38310;52.796;6.942;2023-05-07T10:09:02;17.50;99.90
52381;DHT22;38310;52.796;6.942;2023-05-07T10:11:28;17.80;99.90
52381;DHT22;38310;52.796;6.942;2023-05-07T10:13:54;18.00;99.90
52381;DHT22;38310;52.796;6.942;2023-05-07T10:16:21;18.10;99.90
52381;DHT22;38310;52.796;6.942;2023-05-07T10:18:47;17.80;99.90
52381;DHT22;38310;52.796;6.942;2023-05-07T10:21:20;18.20;99.90
52381;DHT22;38310;52.796;6.942;2023-05-07T10:23:49;18.50;99.90
52381;DHT22;38310;52.796;6.942;2023-05-07T10:26:17;18.80;99.90
52381;DHT22;38310;52.796;6.942;2023-05-07T10:28:47;19.10;99.90
52381;DHT22;38310;52.796;6.942;2023-05-07T10:34:21;19.40;99.90
52381;DHT22;38310;52.796;6.942;2023-05-07T10:36:49;19.60;99.90
52381;DHT22;38310;52.796;6.942;2023-05-07T10:39:15;19.20;99.90
52381;DHT22;38310;52.796;6.942;2023-05-07T10:41:41;19.10;99.90
52381;DHT22;38310;52.796;6.942;2023-05-07T10:44:07;19.20;99.90
52381;DHT22;38310;52.796;6.942;2023-05-07T10:46:33;19.30;99.90
52381;DHT22;38310;52.796;6.942;2023-05-07T10:51:26;19.50;99.90
52381;DHT22;38310;52.796;6.942;2023-05-07T10:54:19;19.60;99.90
52381;DHT22;38310;52.796;6.942;2023-05-07T10:56:45;19.90;99.90
52381;DHT22;38310;52.796;6.942;2023-05-07T11:02:02;20.30;99.90
52381;DHT22;38310;52.796;6.942;2023-05-07T11:04:29;20.40;99.90
52381;DHT22;38310;52.796;6.942;2023-05-07T11:12:17;20.60;99.90
52381;DHT22;38310;52.796;6.942;2023-05-07T11:14:43;20.30;99.90
52381;DHT22;38310;52.796;6.942;2023-05-07T11:17:10;20.40;99.90
52381;DHT22;38310;52.796;6.942;2023-05-07T11:19:53;20.40;99.90
52381;DHT22;38310;52.796;6.942;2023-05-07T11:25:05;20.50;99.90
52381;DHT22;38310;52.796;6.942;2023-05-07T11:27:31;21.10;99.90
52381;DHT22;38310;52.796;6.942;2023-05-07T11:29:57;21.30;99.90
52381;DHT22;38310;52.796;6.942;2023-05-07T11:34:54;21.70;99.90
52381;DHT22;38310;52.796;6.942;2023-05-07T11:37:21;21.60;99.90
52381;DHT22;38310;52.796;6.942;2023-05-07T11:39:47;21.80;99.90
52381;DHT22;38310;52.796;6.942;2023-05-07T11:42:29;21.70;99.90
52381;DHT22;38310;52.796;6.942;2023-05-07T11:44:56;22.10;99.90
52381;DHT22;38310;52.796;6.942;2023-05-07T11:47:22;21.40;99.90
52381;DHT22;38310;52.796;6.942;2023-05-07T11:49:48;22.10;99.90
52381;DHT22;38310;52.796;6.942;2023-05-07T11:52:15;21.70;99.90
52381;DHT22;38310;52.796;6.942;2023-05-07T11:54:41;22.10;99.90
52381;DHT22;38310;52.796;6.942;2023-05-07T11:57:14;21.90;99.90
52381;DHT22;38310;52.796;6.942;2023-05-07T11:59:40;22.00;99.90
52381;DHT22;38310;52.796;6.942;2023-05-07T12:02:07;22.30;99.90
52381;DHT22;38310;52.796;6.942;2023-05-07T12:04:33;22.40;99.90
52381;DHT22;38310;52.796;6.942;2023-05-07T12:06:59;22.00;99.90
52381;DHT22;38310;52.796;6.942;2023-05-07T12:09:25;22.00;99.90
52381;DHT22;38310;52.796;6.942;2023-05-07T12:11:52;21.50;99.90
52381;DHT22;38310;52.796;6.942;2023-05-07T12:14:17;21.70;99.90
52381;DHT22;38310;52.796;6.942;2023-05-07T12:16:44;21.50;99.90
52381;DHT22;38310;52.796;6.942;2023-05-07T12:19:11;21.70;99.90
52381;DHT22;38310;52.796;6.942;2023-05-07T12:21:40;22.10;99.90
52381;DHT22;38310;52.796;6.942;2023-05-07T12:24:07;22.00;99.90
52381;DHT22;38310;52.796;6.942;2023-05-07T12:26:40;21.70;99.90
52381;DHT22;38310;52.796;6.942;2023-05-07T12:29:06;21.80;99.90
52381;DHT22;38310;52.796;6.942;2023-05-07T12:31:32;21.80;99.90
52381;DHT22;38310;52.796;6.942;2023-05-07T12:33:58;22.20;99.90
52381;DHT22;38310;52.796;6.942;2023-05-07T12:36:23;22.80;99.90
52381;DHT22;38310;52.796;6.942;2023-05-07T12:38:50;23.10;99.90
52381;DHT22;38310;52.796;6.942;2023-05-07T12:41:16;22.70;99.90
52381;DHT22;38310;52.796;6.942;2023-05-07T12:43:44;22.50;99.90
52381;DHT22;38310;52.796;6.942;2023-05-07T12:46:11;22.70;99.90
52381;DHT22;38310;52.796;6.942;2023-05-07T12:48:43;22.20;99.90
52381;DHT22;38310;52.796;6.942;2023-05-07T12:51:11;22.00;99.90
52381;DHT22;38310;52.796;6.942;2023-05-07T12:53:42;22.30;99.90
52381;DHT22;38310;52.796;6.942;2023-05-07T12:56:08;22.30;99.90
52381;DHT22;38310;52.796;6.942;2023-05-07T12:58:35;21.80;99.90
52381;DHT22;38310;52.796;6.942;2023-05-07T13:01:06;21.80;99.90
52381;DHT22;38310;52.796;6.942;2023-05-07T13:03:34;21.70;99.90
52381;DHT22;38310;52.796;6.942;2023-05-07T13:06:07;21.80;99.90
52381;DHT22;38310;52.796;6.942;2023-05-07T13:08:40;21.80;99.90
52381;DHT22;38310;52.796;6.942;2023-05-07T13:11:07;21.50;99.90
52381;DHT22;38310;52.796;6.942;2023-05-07T13:13:37;21.70;99.90
52381;DHT22;38310;52.796;6.942;2023-05-07T13:16:05;21.60;99.90
52381;DHT22;38310;52.796;6.942;2023-05-07T13:18:31;21.20;99.90
52381;DHT22;38310;52.796;6.942;2023-05-07T13:20:57;21.20;99.90
52381;DHT22;38310;52.796;6.942;2023-05-07T13:23:23;21.00;99.90
52381;DHT22;38310;52.796;6.942;2023-05-07T13:25:49;20.70;99.90
52381;DHT22;38310;52.796;6.942;2023-05-07T13:28:16;20.80;99.90
52381;DHT22;38310;52.796;6.942;2023-05-07T13:30:42;20.60;99.90
52381;DHT22;38310;52.796;6.942;2023-05-07T13:33:09;20.70;99.90
52381;DHT22;38310;52.796;6.942;2023-05-07T13:35:35;20.60;99.90
52381;DHT22;38310;52.796;6.942;2023-05-07T13:38:01;20.50;99.90
52381;DHT22;38310;52.796;6.942;2023-05-07T13:40:26;20.50;99.90
52381;DHT22;38310;52.796;6.942;2023-05-07T13:42:53;20.40;99.90
52381;DHT22;38310;52.796;6.942;2023-05-07T13:45:19;20.10;99.90
52381;DHT22;38310;52.796;6.942;2023-05-07T13:47:46;20.00;99.90
52381;DHT22;38310;52.796;6.942;2023-05-07T13:50:12;20.00;99.90
52381;DHT22;38310;52.796;6.942;2023-05-07T13:52:42;20.20;99.90
52381;DHT22;38310;52.796;6.942;2023-05-07T13:55:09;20.40;99.90
52381;DHT22;38310;52.796;6.942;2023-05-07T13:57:36;20.60;99.90
52381;DHT22;38310;52.796;6.942;2023-05-07T14:00:03;20.90;99.90
52381;DHT22;38310;52.796;6.942;2023-05-07T14:02:31;20.70;99.90
52381;DHT22;38310;52.796;6.942;2023-05-07T14:04:56;20.90;99.90
52381;DHT22;38310;52.796;6.942;2023-05-07T14:07:22;20.90;99.90
52381;DHT22;38310;52.796;6.942;2023-05-07T14:09:48;21.00;99.90
52381;DHT22;38310;52.796;6.942;2023-05-07T14:12:14;21.00;99.90
52381;DHT22;38310;52.796;6.942;2023-05-07T14:14:39;21.00;99.90
52381;DHT22;38310;52.796;6.942;2023-05-07T14:17:05;20.70;99.90
52381;DHT22;38310;52.796;6.942;2023-05-07T14:19:31;20.60;99.90
52381;DHT22;38310;52.796;6.942;2023-05-07T14:21:57;20.70;99.90
52381;DHT22;38310;52.796;6.942;2023-05-07T14:24:24;21.00;99.90
52381;DHT22;38310;52.796;6.942;2023-05-07T14:26:50;20.80;99.90
52381;DHT22;38310;52.796;6.942;2023-05-07T14:29:16;20.90;99.90
52381;DHT22;38310;52.796;6.942;2023-05-07T14:31:45;21.10;99.90
52381;DHT22;38310;52.796;6.942;2023-05-07T14:34:11;21.20;99.90
52381;DHT22;38310;52.796;6.942;2023-05-07T14:36:36;21.00;99.90
52381;DHT22;38310;52.796;6.942;2023-05-07T14:39:03;20.80;99.90
52381;DHT22;38310;52.796;6.942;2023-05-07T14:41:29;20.70;99.90
52381;DHT22;38310;52.796;6.942;2023-05-07T14:43:55;20.60;99.90
52381;DHT22;38310;52.796;6.942;2023-05-07T14:46:21;20.50;99.90
52381;DHT22;38310;52.796;6.942;2023-05-07T14:48:46;20.50;99.90
52381;DHT22;38310;52.796;6.942;2023-05-07T14:51:13;20.40;99.90
52381;DHT22;38310;52.796;6.942;2023-05-07T14:53:40;20.40;99.90
52381;DHT22;38310;52.796;6.942;2023-05-07T14:56:06;20.30;99.90
52381;DHT22;38310;52.796;6.942;2023-05-07T14:58:33;20.10;99.90
52381;DHT22;38310;52.796;6.942;2023-05-07T15:00:59;20.10;99.90
52381;DHT22;38310;52.796;6.942;2023-05-07T15:03:24;20.00;99.90
52381;DHT22;38310;52.796;6.942;2023-05-07T15:05:51;19.90;99.90
52381;DHT22;38310;52.796;6.942;2023-05-07T15:08:17;19.80;99.90
52381;DHT22;38310;52.796;6.942;2023-05-07T15:10:43;19.70;99.90
52381;DHT22;38310;52.796;6.942;2023-05-07T15:13:10;19.60;99.90
52381;DHT22;38310;52.796;6.942;2023-05-07T15:15:37;19.50;99.90
52381;DHT22;38310;52.796;6.942;2023-05-07T15:18:03;19.50;99.90
52381;DHT22;38310;52.796;6.942;2023-05-07T15:20:29;19.50;99.90
52381;DHT22;38310;52.796;6.942;2023-05-07T15:22:55;19.40;99.90
52381;DHT22;38310;52.796;6.942;2023-05-07T15:25:21;19.40;99.90
52381;DHT22;38310;52.796;6.942;2023-05-07T15:27:47;19.20;99.90
52381;DHT22;38310;52.796;6.942;2023-05-07T15:30:13;19.20;99.90
52381;DHT22;38310;52.796;6.942;2023-05-07T15:32:40;19.00;99.90
52381;DHT22;38310;52.796;6.942;2023-05-07T15:35:07;18.90;99.90
52381;DHT22;38310;52.796;6.942;2023-05-07T15:37:33;18.90;99.90
52381;DHT22;38310;52.796;6.942;2023-05-07T15:39:59;18.80;99.90
52381;DHT22;38310;52.796;6.942;2023-05-07T15:42:27;18.90;99.90
52381;DHT22;38310;52.796;6.942;2023-05-07T15:44:53;18.80;99.90
52381;DHT22;38310;52.796;6.942;2023-05-07T15:47:19;18.80;99.90